Time;durP1;ratioP1;P1;durP2;ratioP2;P2;SDS_P1;SDS_P2;PMS_P1;PMS_P2;Temp;Humidity;BMP_temperature;BMP_pressure;BME280_temperature;BME280_humidity;BME280_pressure;Samples;Min_cycle;Max_cycle;Signal;HPM_P1;HPM_P2
2023/06/11 00:02:07;;;;;;;7.20;6.50;;;19.10;99.90;;;;;;5014754;28;20261;-43
2023/06/11 00:04:34;;;;;;;8.07;6.65;;;19.10;99.90;;;;;;5023691;28;20178;-40
2023/06/11 00:07:02;;;;;;;8.50;7.70;;;19.10;99.90;;;;;;5027954;28;20210;-43
2023/06/11 00:09:28;;;;;;;7.82;6.85;;;19.00;99.90;;;;;;5008966;28;20199;-41
2023/06/11 00:11:55;;;;;;;6.80;6.30;;;19.00;99.90;;;;;;5019095;28;20183;-41
2023/06/11 00:14:22;;;;;;;7.05;6.45;;;19.10;99.90;;;;;;5024537;28;20221;-41
2023/06/11 00:16:48;;;;;;;7.25;6.65;;;19.10;99.90;;;;;;5015013;28;20199;-40
2023/06/11 00:19:14;;;;;;;6.38;5.80;;;19.00;99.90;;;;;;5008934;28;20266;-42
2023/06/11 00:21:44;;;;;;;7.57;6.82;;;19.00;99.90;;;;;;5010228;28;20278;-41
2023/06/11 00:24:12;;;;;;;8.27;6.35;;;18.90;99.90;;;;;;5023706;28;20186;-42
2023/06/11 00:26:38;;;;;;;7.40;6.70;;;18.80;99.90;;;;;;5021906;28;20206;-42
2023/06/11 00:29:05;;;;;;;7.32;6.63;;;18.80;99.90;;;;;;5021760;28;20210;-40
2023/06/11 00:31:31;;;;;;;7.18;6.47;;;18.70;99.90;;;;;;5008298;28;20257;-41
2023/06/11 00:33:56;;;;;;;6.90;6.30;;;18.60;99.90;;;;;;5027847;28;20271;-41
2023/06/11 00:36:25;;;;;;;7.00;6.35;;;18.60;99.90;;;;;;5007155;28;20300;-41
2023/06/11 00:38:51;;;;;;;7.93;6.85;;;18.70;99.90;;;;;;5010671;28;20191;-39
2023/06/11 00:41:17;;;;;;;7.30;6.63;;;18.70;99.90;;;;;;4982292;28;20271;-42
2023/06/11 00:43:42;;;;;;;7.30;6.60;;;18.60;99.90;;;;;;4974853;28;20184;-41
2023/06/11 00:46:10;;;;;;;7.75;6.97;;;18.60;99.90;;;;;;4977664;28;20277;-38
2023/06/11 00:48:38;;;;;;;7.13;6.43;;;18.50;99.90;;;;;;5009028;28;20179;-42
2023/06/11 00:51:05;;;;;;;7.05;6.45;;;18.50;99.90;;;;;;5000121;28;20248;-41
2023/06/11 00:53:31;;;;;;;7.05;6.45;;;18.50;99.90;;;;;;4974775;28;20172;-42
2023/06/11 00:55:57;;;;;;;7.20;6.50;;;18.50;99.90;;;;;;4983440;28;20203;-41
2023/06/11 00:58:23;;;;;;;6.80;6.20;;;18.50;99.90;;;;;;5010363;28;20195;-39
2023/06/11 01:00:58;;;;;;;6.97;6.38;;;18.40;99.90;;;;;;4985966;28;20184;-42
2023/06/11 01:03:27;;;;;;;7.10;6.30;;;18.40;99.90;;;;;;4986110;28;20233;-41
2023/06/11 01:06:06;;;;;;;7.57;6.88;;;18.40;99.90;;;;;;5008182;28;20218;-41
2023/06/11 01:08:38;;;;;;;7.72;7.05;;;18.40;99.90;;;;;;4997295;28;20179;-41
2023/06/11 01:11:13;;;;;;;8.52;6.82;;;18.30;99.90;;;;;;5002204;28;20180;-39
2023/06/11 01:13:41;;;;;;;6.97;6.38;;;18.30;99.90;;;;;;5005716;28;20183;-41
2023/06/11 01:16:14;;;;;;;8.13;7.32;;;18.20;99.90;;;;;;4985359;28;20207;-41
2023/06/11 01:18:58;;;;;;;7.38;6.78;;;18.20;99.90;;;;;;4977492;28;20184;-43
2023/06/11 01:21:33;;;;;;;7.97;7.07;;;18.20;99.90;;;;;;4992361;28;20202;-39
2023/06/11 01:24:17;;;;;;;7.70;7.00;;;18.10;99.90;;;;;;4977046;28;20265;-38
2023/06/11 01:26:51;;;;;;;7.60;6.90;;;18.00;99.90;;;;;;4983974;28;20210;-41
2023/06/11 01:29:21;;;;;;;8.02;7.22;;;18.00;99.90;;;;;;5006969;28;20183;-42
2023/06/11 01:31:49;;;;;;;7.95;7.25;;;17.90;99.90;;;;;;4973867;28;20176;-42
2023/06/11 01:34:16;;;;;;;7.82;7.13;;;17.80;99.90;;;;;;5010158;28;20185;-41
2023/06/11 01:36:43;;;;;;;9.30;7.93;;;17.80;99.90;;;;;;4984993;28;20244;-42
2023/06/11 01:39:11;;;;;;;8.25;7.45;;;17.70;99.90;;;;;;5006346;28;20291;-42
2023/06/11 01:41:57;;;;;;;7.70;6.85;;;17.70;99.90;;;;;;4998922;28;20272;-41
2023/06/11 01:44:25;;;;;;;8.32;7.35;;;17.60;99.90;;;;;;4973790;28;20273;-40
2023/06/11 01:46:51;;;;;;;7.50;6.80;;;17.60;99.90;;;;;;4973720;28;20295;-39
2023/06/11 01:49:17;;;;;;;7.63;6.75;;;17.50;99.90;;;;;;4981620;28;20191;-41
2023/06/11 01:51:44;;;;;;;8.48;7.50;;;17.40;99.90;;;;;;4977378;28;20194;-41
2023/06/11 01:54:10;;;;;;;7.50;6.90;;;17.30;99.90;;;;;;4976167;28;20187;-40
2023/06/11 01:56:36;;;;;;;7.57;6.88;;;17.20;99.90;;;;;;5000628;28;20257;-40
2023/06/11 01:59:02;;;;;;;8.07;7.35;;;17.10;99.90;;;;;;4983688;28;20180;-38
2023/06/11 02:01:32;;;;;;;7.87;7.17;;;17.10;99.90;;;;;;4988119;28;20180;-42
2023/06/11 02:03:58;;;;;;;8.73;7.80;;;17.10;99.90;;;;;;4983557;28;20187;-41
2023/06/11 02:06:25;;;;;;;8.70;7.23;;;17.00;99.90;;;;;;4983812;28;20223;-40
2023/06/11 02:08:51;;;;;;;8.70;7.90;;;17.00;99.90;;;;;;4977437;28;20184;-41
2023/06/11 02:11:16;;;;;;;8.53;7.63;;;17.00;99.90;;;;;;4988662;28;20179;-41
2023/06/11 02:13:42;;;;;;;8.95;8.05;;;17.10;99.90;;;;;;4973475;28;20176;-42
2023/06/11 02:16:08;;;;;;;8.43;7.63;;;17.10;99.90;;;;;;4975835;28;20226;-42
2023/06/11 02:18:34;;;;;;;8.20;7.40;;;17.20;99.90;;;;;;4981494;28;20194;-40
2023/06/11 02:21:00;;;;;;;9.13;8.20;;;17.20;99.90;;;;;;4979105;28;20191;-41
2023/06/11 02:23:25;;;;;;;8.18;7.47;;;17.20;99.90;;;;;;4983983;28;20183;-42
2023/06/11 02:25:51;;;;;;;15.68;7.97;;;17.30;99.90;;;;;;4977068;28;20273;-43
2023/06/11 02:28:17;;;;;;;7.63;6.90;;;17.30;99.90;;;;;;4996004;28;20175;-40
2023/06/11 02:30:43;;;;;;;7.63;6.90;;;17.30;99.90;;;;;;5013297;28;20262;-41
2023/06/11 02:33:09;;;;;;;7.07;6.47;;;17.30;99.90;;;;;;4980700;28;20182;-42
2023/06/11 02:35:35;;;;;;;8.38;7.60;;;17.30;99.90;;;;;;4990347;28;20191;-41
2023/06/11 02:38:01;;;;;;;8.65;7.72;;;17.30;99.90;;;;;;4988169;28;20190;-42
2023/06/11 02:40:28;;;;;;;8.40;7.60;;;17.30;99.90;;;;;;4999914;28;20180;-38
2023/06/11 02:42:54;;;;;;;8.43;7.72;;;17.20;99.90;;;;;;4995396;28;20175;-41
2023/06/11 02:45:20;;;;;;;8.20;7.47;;;17.20;99.90;;;;;;4983969;28;20249;-42
2023/06/11 02:47:45;;;;;;;8.35;7.55;;;17.20;99.90;;;;;;4976648;28;20254;-42
2023/06/11 02:50:11;;;;;;;8.10;7.32;;;17.20;99.90;;;;;;4988414;28;20179;-41
2023/06/11 02:52:37;;;;;;;9.70;8.43;;;17.10;99.90;;;;;;4981875;28;20180;-42
2023/06/11 02:55:03;;;;;;;8.75;7.68;;;17.10;99.90;;;;;;4996336;28;20273;-41
2023/06/11 02:57:29;;;;;;;8.27;7.57;;;17.00;99.90;;;;;;4988466;28;20221;-38
2023/06/11 02:59:55;;;;;;;8.27;7.47;;;16.90;99.90;;;;;;5001702;28;20274;-41
2023/06/11 03:02:21;;;;;;;8.43;7.63;;;16.80;99.90;;;;;;5005540;28;20182;-39
2023/06/11 03:04:46;;;;;;;8.33;7.53;;;16.80;99.90;;;;;;4990995;28;20184;-40
2023/06/11 03:07:12;;;;;;;8.40;7.60;;;16.70;99.90;;;;;;4994994;28;20229;-39
2023/06/11 03:09:38;;;;;;;8.73;7.93;;;16.60;99.90;;;;;;4997603;28;20258;-40
2023/06/11 03:12:05;;;;;;;8.60;7.80;;;16.60;99.90;;;;;;4976929;28;20242;-42
2023/06/11 03:14:32;;;;;;;8.17;7.37;;;16.50;99.90;;;;;;4998822;28;20262;-41
2023/06/11 03:16:58;;;;;;;9.00;8.13;;;16.50;99.90;;;;;;4981961;28;20291;-39
2023/06/11 03:19:24;;;;;;;8.97;8.07;;;16.50;99.90;;;;;;5006006;28;20195;-41
2023/06/11 03:21:53;;;;;;;8.30;7.60;;;16.50;99.90;;;;;;4980085;28;20188;-40
2023/06/11 03:24:18;;;;;;;9.00;8.10;;;16.50;99.90;;;;;;4991940;28;20180;-41
2023/06/11 03:26:44;;;;;;;8.10;7.40;;;16.50;99.90;;;;;;4976318;28;20207;-42
2023/06/11 03:29:10;;;;;;;8.13;7.43;;;16.50;99.90;;;;;;5003394;28;20242;-42
2023/06/11 03:31:44;;;;;;;8.50;7.70;;;16.50;99.90;;;;;;4998563;28;20184;-43
2023/06/11 03:34:10;;;;;;;8.77;7.83;;;16.40;99.90;;;;;;4987055;28;20187;-38
2023/06/11 03:36:37;;;;;;;8.97;8.07;;;16.30;99.90;;;;;;4987251;28;20203;-41
2023/06/11 03:39:08;;;;;;;9.53;7.90;;;16.30;99.90;;;;;;4995550;28;20190;-41
2023/06/11 03:41:34;;;;;;;8.10;7.33;;;16.20;99.90;;;;;;4981567;28;20200;-41
2023/06/11 03:44:00;;;;;;;9.37;8.30;;;16.20;99.90;;;;;;4977542;28;20188;-41
2023/06/11 03:46:26;;;;;;;8.97;7.73;;;16.20;99.90;;;;;;4982003;28;20203;-38
2023/06/11 03:48:52;;;;;;;9.77;7.70;;;16.20;99.90;;;;;;4976476;28;20195;-39
2023/06/11 03:51:18;;;;;;;8.70;7.73;;;16.10;99.90;;;;;;4983587;28;20184;-42
2023/06/11 03:53:44;;;;;;;10.03;7.90;;;16.10;99.90;;;;;;4991171;28;20223;-41
2023/06/11 03:56:10;;;;;;;9.27;7.53;;;16.10;99.90;;;;;;4975969;28;20208;-41
2023/06/11 03:58:36;;;;;;;8.87;8.07;;;16.00;99.90;;;;;;5000706;28;20183;-42
2023/06/11 04:01:01;;;;;;;8.70;7.90;;;16.00;99.90;;;;;;5009250;28;20187;-41
2023/06/11 04:03:27;;;;;;;8.70;7.80;;;16.00;99.90;;;;;;4981647;28;20279;-41
2023/06/11 04:05:53;;;;;;;8.93;8.13;;;16.00;99.90;;;;;;4975992;28;20303;-42
2023/06/11 04:08:19;;;;;;;8.53;7.73;;;16.00;99.90;;;;;;4981960;28;20648;-39
2023/06/11 04:10:45;;;;;;;8.97;8.10;;;16.00;99.90;;;;;;4975810;28;20176;-41
2023/06/11 04:13:11;;;;;;;9.43;8.43;;;16.10;99.90;;;;;;4986608;28;20209;-41
2023/06/11 04:15:38;;;;;;;9.40;8.53;;;16.10;99.90;;;;;;5010793;28;20183;-43
2023/06/11 04:18:07;;;;;;;9.70;8.70;;;16.20;99.90;;;;;;4978602;28;20183;-41
2023/06/11 04:20:33;;;;;;;9.43;8.63;;;16.30;99.90;;;;;;4980907;28;20180;-39
2023/06/11 04:22:59;;;;;;;10.73;9.57;;;16.40;99.90;;;;;;4976631;28;20180;-42
2023/06/11 04:25:25;;;;;;;9.60;8.70;;;16.40;99.90;;;;;;4989660;28;20187;-41
2023/06/11 04:27:52;;;;;;;9.27;8.37;;;16.50;99.90;;;;;;4983450;28;20191;-42
2023/06/11 04:30:20;;;;;;;9.70;8.70;;;16.50;99.90;;;;;;5003320;28;20311;-42
2023/06/11 04:32:54;;;;;;;9.10;8.20;;;16.60;99.90;;;;;;4979632;28;20207;-41
2023/06/11 04:35:25;;;;;;;8.73;8.00;;;16.60;99.90;;;;;;4982675;28;20176;-41
2023/06/11 04:37:52;;;;;;;9.33;8.43;;;16.60;99.90;;;;;;4982777;28;20262;-42
2023/06/11 04:40:23;;;;;;;8.70;7.83;;;16.60;99.90;;;;;;4981342;28;20250;-42
2023/06/11 04:42:50;;;;;;;8.70;7.90;;;16.70;99.90;;;;;;4975412;28;20180;-39
2023/06/11 04:45:18;;;;;;;8.93;8.03;;;16.60;99.90;;;;;;5010524;28;20198;-42
2023/06/11 04:47:46;;;;;;;8.40;7.70;;;16.60;99.90;;;;;;4986401;28;20207;-41
2023/06/11 04:50:12;;;;;;;9.13;8.33;;;16.70;99.90;;;;;;4990054;28;20176;-40
2023/06/11 04:52:38;;;;;;;8.33;7.53;;;16.70;99.90;;;;;;4989290;28;20175;-42
2023/06/11 04:55:09;;;;;;;9.17;8.27;;;16.80;99.90;;;;;;4977877;28;20184;-42
2023/06/11 04:57:36;;;;;;;9.77;8.77;;;16.80;99.90;;;;;;4982961;28;20207;-41
2023/06/11 05:00:10;;;;;;;11.23;8.47;;;16.90;99.90;;;;;;4984159;28;20188;-41
2023/06/11 05:02:38;;;;;;;9.37;8.47;;;17.00;99.90;;;;;;4979867;28;20230;-40
2023/06/11 05:05:06;;;;;;;9.00;8.20;;;17.00;99.90;;;;;;4976546;28;20188;-39
2023/06/11 05:07:32;;;;;;;8.45;7.75;;;17.10;99.90;;;;;;4979781;28;20243;-41
2023/06/11 05:09:59;;;;;;;9.57;8.67;;;17.10;99.90;;;;;;4974656;28;20187;-41
2023/06/11 05:12:26;;;;;;;9.25;8.32;;;17.20;99.90;;;;;;5000252;28;20179;-39
2023/06/11 05:14:52;;;;;;;9.32;8.38;;;17.30;99.90;;;;;;5006765;28;20175;-40
2023/06/11 05:17:18;;;;;;;9.18;8.38;;;17.40;99.90;;;;;;4973902;28;20294;-40
2023/06/11 05:19:46;;;;;;;9.38;8.48;;;17.50;99.90;;;;;;4974567;28;20180;-43
2023/06/11 05:22:12;;;;;;;9.70;8.68;;;17.60;99.90;;;;;;4974565;28;20271;-42
2023/06/11 05:24:41;;;;;;;9.05;8.25;;;17.70;99.90;;;;;;5003799;28;20179;-42
2023/06/11 05:27:08;;;;;;;8.32;7.63;;;17.80;99.90;;;;;;4981792;28;20222;-42
2023/06/11 05:29:36;;;;;;;8.45;7.75;;;17.90;99.90;;;;;;4996121;28;20176;-41
2023/06/11 05:32:05;;;;;;;9.43;8.20;;;18.00;99.90;;;;;;5020892;28;20180;-41
2023/06/11 05:34:34;;;;;;;9.90;8.35;;;18.10;99.90;;;;;;5014351;28;20266;-42
2023/06/11 05:37:06;;;;;;;10.07;9.10;;;18.20;99.90;;;;;;5018455;28;20200;-42
2023/06/11 05:39:33;;;;;;;9.60;8.70;;;18.30;99.90;;;;;;4984154;28;20210;-38
2023/06/11 05:42:01;;;;;;;8.63;7.80;;;18.40;99.90;;;;;;4976030;28;20250;-42
2023/06/11 05:44:36;;;;;;;8.88;8.05;;;18.40;99.90;;;;;;4994392;28;20696;-42
2023/06/11 05:47:04;;;;;;;9.40;8.50;;;18.60;99.90;;;;;;4992647;28;20219;-41
2023/06/11 05:49:30;;;;;;;9.20;8.23;;;18.70;99.90;;;;;;4981788;28;20180;-42
2023/06/11 05:51:57;;;;;;;8.90;8.00;;;18.90;99.90;;;;;;5005498;28;20171;-42
2023/06/11 05:54:23;;;;;;;8.98;8.10;;;19.00;99.90;;;;;;4989186;28;20175;-42
2023/06/11 05:56:50;;;;;;;8.48;7.70;;;19.20;99.90;;;;;;4977299;28;20206;-43
2023/06/11 05:59:16;;;;;;;8.75;7.85;;;19.40;99.90;;;;;;5006021;28;20215;-42
2023/06/11 06:01:45;;;;;;;8.45;7.75;;;19.50;99.90;;;;;;5009701;28;20230;-43
2023/06/11 06:04:13;;;;;;;8.07;7.38;;;19.70;99.90;;;;;;4990723;28;20669;-42
2023/06/11 06:06:41;;;;;;;7.78;6.93;;;19.90;99.90;;;;;;4978031;28;20215;-41
2023/06/11 06:09:06;;;;;;;8.25;7.45;;;20.10;99.90;;;;;;4976389;28;20187;-43
2023/06/11 06:11:33;;;;;;;7.38;6.78;;;20.40;99.90;;;;;;4987627;28;20183;-41
2023/06/11 06:13:59;;;;;;;7.80;7.10;;;20.60;99.90;;;;;;5000207;28;20187;-41
2023/06/11 06:16:25;;;;;;;6.70;6.10;;;20.80;99.90;;;;;;4998955;28;20231;-41
2023/06/11 06:18:51;;;;;;;6.80;6.10;;;21.00;99.90;;;;;;5005338;28;20214;-41
2023/06/11 06:21:18;;;;;;;7.25;6.65;;;21.20;99.90;;;;;;5006531;28;20191;-42
2023/06/11 06:23:44;;;;;;;6.97;6.40;;;21.40;99.90;;;;;;5000288;28;20191;-41
2023/06/11 06:26:13;;;;;;;7.28;6.68;;;21.40;99.90;;;;;;4985153;28;20215;-43
2023/06/11 06:28:39;;;;;;;6.85;6.30;;;21.60;99.90;;;;;;5016955;28;20211;-42
2023/06/11 06:31:07;;;;;;;9.80;7.03;;;21.80;99.90;;;;;;5019651;28;20247;-42
2023/06/11 06:33:37;;;;;;;6.13;5.63;;;22.00;99.90;;;;;;5000495;28;20176;-42
2023/06/11 06:36:05;;;;;;;6.75;6.18;;;22.10;99.90;;;;;;5004462;28;20212;-43
2023/06/11 06:38:32;;;;;;;6.53;5.85;;;22.30;99.90;;;;;;4997470;28;20671;-42
2023/06/11 06:40:58;;;;;;;6.82;6.13;;;22.40;99.90;;;;;;4990489;28;20183;-43
2023/06/11 06:43:24;;;;;;;7.10;6.40;;;22.50;99.90;;;;;;4983082;28;20180;-42
2023/06/11 06:45:55;;;;;;;5.65;5.25;;;22.70;99.90;;;;;;5006844;28;20207;-43
2023/06/11 06:48:25;;;;;;;6.28;5.78;;;22.90;99.90;;;;;;4989339;28;20191;-43
2023/06/11 06:50:55;;;;;;;6.68;6.00;;;23.00;99.90;;;;;;5004617;28;20218;-42
2023/06/11 06:53:22;;;;;;;6.85;6.22;;;23.10;99.90;;;;;;4996426;28;20184;-43
2023/06/11 06:55:48;;;;;;;6.72;6.13;;;23.20;99.90;;;;;;4999567;28;20204;-43
2023/06/11 06:58:14;;;;;;;6.22;5.72;;;23.30;99.90;;;;;;5011736;28;20246;-42
2023/06/11 07:00:41;;;;;;;6.47;5.75;;;23.30;99.90;;;;;;4986715;28;20191;-43
2023/06/11 07:03:09;;;;;;;6.60;6.00;;;23.30;99.90;;;;;;5016083;28;20187;-43
2023/06/11 07:05:37;;;;;;;6.55;5.95;;;23.40;99.90;;;;;;5005219;28;20179;-44
2023/06/11 07:08:03;;;;;;;6.85;6.25;;;23.50;99.90;;;;;;4981829;28;20279;-41
2023/06/11 07:10:30;;;;;;;6.22;5.70;;;23.60;99.90;;;;;;5026116;28;20270;-42
2023/06/11 07:12:56;;;;;;;6.70;6.10;;;23.70;99.90;;;;;;4998808;28;20184;-42
2023/06/11 07:15:22;;;;;;;6.03;5.43;;;23.90;99.90;;;;;;5010700;28;20270;-42
2023/06/11 07:17:48;;;;;;;6.60;6.00;;;24.00;99.90;;;;;;5001475;28;20274;-43
2023/06/11 07:20:15;;;;;;;6.80;6.03;;;24.20;99.90;;;;;;4985684;28;20267;-42
2023/06/11 07:22:41;;;;;;;6.20;5.60;;;24.20;99.90;;;;;;4991619;28;20307;-43
2023/06/11 07:25:09;;;;;;;6.40;5.78;;;24.20;99.90;;;;;;4981929;28;20278;-43
2023/06/11 07:27:36;;;;;;;6.25;5.65;;;24.20;99.90;;;;;;4984816;28;20307;-42
2023/06/11 07:30:04;;;;;;;5.97;5.18;;;24.30;99.90;;;;;;4981014;28;20180;-42
2023/06/11 07:32:30;;;;;;;6.10;5.50;;;24.40;99.90;;;;;;5005030;28;20178;-43
2023/06/11 07:34:59;;;;;;;5.53;5.13;;;24.30;99.90;;;;;;5001245;28;20175;-42
2023/06/11 07:37:28;;;;;;;5.90;5.30;;;24.30;99.90;;;;;;5004180;28;20226;-43
2023/06/11 07:39:53;;;;;;;6.57;5.85;;;24.50;99.90;;;;;;4985804;28;20180;-42
2023/06/11 07:42:20;;;;;;;5.63;5.13;;;24.60;99.90;;;;;;4989254;28;20188;-44
2023/06/11 07:44:46;;;;;;;6.22;5.63;;;24.70;99.90;;;;;;4992665;28;20184;-43
2023/06/11 07:47:12;;;;;;;6.47;5.72;;;24.80;99.90;;;;;;5000196;28;20215;-43
2023/06/11 07:49:39;;;;;;;5.88;5.18;;;24.90;99.90;;;;;;5011916;28;20183;-44
2023/06/11 07:52:05;;;;;;;6.07;5.57;;;24.80;99.90;;;;;;4994880;28;20187;-42
2023/06/11 07:54:31;;;;;;;5.80;5.40;;;24.90;99.90;;;;;;4990325;28;20207;-42
2023/06/11 07:56:57;;;;;;;6.15;5.65;;;25.00;99.90;;;;;;4993070;28;20204;-43
2023/06/11 07:59:25;;;;;;;6.03;5.45;;;25.10;99.90;;;;;;4996399;28;20207;-43
2023/06/11 08:01:52;;;;;;;6.28;5.32;;;25.20;99.90;;;;;;5000366;28;20184;-42
2023/06/11 08:04:17;;;;;;;6.13;5.63;;;25.30;99.90;;;;;;4981335;28;20215;-41
2023/06/11 08:06:44;;;;;;;5.70;5.20;;;25.40;99.90;;;;;;4980608;28;20233;-44
2023/06/11 08:09:12;;;;;;;5.50;5.03;;;25.60;99.90;;;;;;5017576;28;20183;-40
2023/06/11 08:11:41;;;;;;;6.93;5.35;;;25.80;99.90;;;;;;4977821;28;20177;-42
2023/06/11 08:14:08;;;;;;;5.63;5.00;;;25.80;99.90;;;;;;5003716;28;20282;-42
2023/06/11 08:16:35;;;;;;;6.40;5.53;;;26.00;99.90;;;;;;5020269;28;20207;-40
2023/06/11 08:19:07;;;;;;;5.45;4.95;;;26.00;99.90;;;;;;4998801;28;20191;-42
2023/06/11 08:21:33;;;;;;;6.03;5.35;;;26.00;99.90;;;;;;5019839;28;20209;-42
2023/06/11 08:23:59;;;;;;;5.57;5.15;;;26.00;99.90;;;;;;5019879;28;20195;-43
2023/06/11 08:26:27;;;;;;;5.80;5.30;;;26.10;99.90;;;;;;5006715;28;20219;-42
2023/06/11 08:28:55;;;;;;;5.78;5.25;;;26.30;99.90;;;;;;5016086;28;20179;-43
2023/06/11 08:31:27;;;;;;;6.00;5.50;;;26.40;99.90;;;;;;5008760;28;20191;-42
2023/06/11 08:33:57;;;;;;;5.35;4.95;;;26.40;99.90;;;;;;5004950;28;20172;-43
2023/06/11 08:36:25;;;;;;;5.50;4.93;;;26.60;99.90;;;;;;4997498;28;20279;-41
2023/06/11 08:38:52;;;;;;;5.32;4.72;;;26.80;99.90;;;;;;4991929;28;20179;-41
2023/06/11 08:41:19;;;;;;;5.28;4.88;;;26.90;99.90;;;;;;4984490;28;20200;-40
2023/06/11 08:43:45;;;;;;;5.63;5.13;;;27.00;99.90;;;;;;4993860;28;20184;-42
2023/06/11 08:46:15;;;;;;;5.90;5.40;;;27.20;99.90;;;;;;4993218;28;20215;-42
2023/06/11 08:48:47;;;;;;;5.78;5.18;;;27.00;99.90;;;;;;4986029;28;20192;-42
2023/06/11 08:51:17;;;;;;;5.05;4.65;;;27.00;99.90;;;;;;4986403;28;20191;-42
2023/06/11 08:53:46;;;;;;;5.03;4.63;;;27.10;99.90;;;;;;5020324;28;20230;-43
2023/06/11 08:56:17;;;;;;;5.18;4.68;;;27.20;99.90;;;;;;5006765;28;20210;-42
2023/06/11 08:58:47;;;;;;;5.00;4.60;;;27.30;99.90;;;;;;4995828;28;20223;-42
2023/06/11 09:01:22;;;;;;;4.90;4.38;;;27.30;99.90;;;;;;5003866;28;20195;-42
2023/06/11 09:03:55;;;;;;;5.15;4.68;;;27.30;99.90;;;;;;4991027;28;20199;-42
2023/06/11 09:06:25;;;;;;;5.22;4.80;;;27.40;99.90;;;;;;5008052;28;20254;-43
2023/06/11 09:09:11;;;;;;;5.95;4.55;;;27.50;99.90;;;;;;5008605;28;20176;-43
2023/06/11 09:11:40;;;;;;;4.25;3.95;;;27.70;99.90;;;;;;4990829;28;20179;-42
2023/06/11 09:14:07;;;;;;;4.80;4.40;;;27.90;99.90;;;;;;5008956;28;20269;-40
2023/06/11 09:16:42;;;;;;;4.55;4.20;;;28.10;99.90;;;;;;5014080;28;20210;-42
2023/06/11 09:19:12;;;;;;;5.00;4.50;;;28.30;99.90;;;;;;5007547;28;20190;-42
2023/06/11 09:21:40;;;;;;;4.97;4.57;;;28.30;99.90;;;;;;4976844;28;20202;-42
2023/06/11 09:24:10;;;;;;;5.35;4.53;;;28.20;99.90;;;;;;5007636;28;20195;-42
2023/06/11 09:26:37;;;;;;;5.63;4.90;;;28.30;99.90;;;;;;5017904;28;20221;-41
2023/06/11 09:29:05;;;;;;;5.53;4.50;;;28.50;99.90;;;;;;5006136;28;20180;-43
2023/06/11 09:31:32;;;;;;;4.70;4.30;;;28.60;99.90;;;;;;5009206;28;20175;-40
2023/06/11 09:34:03;;;;;;;6.10;4.35;;;28.70;99.90;;;;;;4999881;28;20176;-41
2023/06/11 09:36:31;;;;;;;5.13;4.63;;;28.80;99.90;;;;;;4988484;28;20217;-43
2023/06/11 09:39:04;;;;;;;5.00;4.50;;;28.80;99.90;;;;;;5008133;28;20187;-43
2023/06/11 09:41:41;;;;;;;4.72;4.32;;;28.90;99.90;;;;;;5022882;28;20190;-40
2023/06/11 09:44:09;;;;;;;5.38;4.60;;;29.10;99.90;;;;;;5021537;28;20187;-43
2023/06/11 09:46:39;;;;;;;6.32;4.40;;;29.20;99.90;;;;;;5001068;28;20227;-40
2023/06/11 09:49:10;;;;;;;4.68;4.30;;;29.20;99.90;;;;;;5001183;28;20202;-43
2023/06/11 09:51:38;;;;;;;5.15;4.75;;;29.20;99.90;;;;;;4991225;28;20180;-42
2023/06/11 09:54:08;;;;;;;4.47;4.18;;;29.40;99.90;;;;;;4996326;28;20188;-43
2023/06/11 09:56:35;;;;;;;5.10;4.47;;;29.40;99.90;;;;;;4994876;28;20202;-42
2023/06/11 09:59:06;;;;;;;5.53;4.28;;;29.50;99.90;;;;;;5004221;28;20213;-40
2023/06/11 10:01:33;;;;;;;4.75;4.35;;;29.60;99.90;;;;;;4993171;28;20270;-41
2023/06/11 10:04:01;;;;;;;5.25;4.78;;;29.40;99.90;;;;;;4992025;28;20179;-43
2023/06/11 10:06:35;;;;;;;4.90;4.50;;;29.40;99.90;;;;;;5004526;28;20232;-43
2023/06/11 10:09:11;;;;;;;4.93;4.53;;;29.40;99.90;;;;;;5005647;28;20270;-42
2023/06/11 10:11:39;;;;;;;5.18;4.75;;;29.40;99.90;;;;;;5003260;28;20211;-42
2023/06/11 10:14:20;;;;;;;5.20;4.70;;;29.20;99.90;;;;;;4999741;28;20199;-42
2023/06/11 10:16:50;;;;;;;5.57;5.15;;;29.00;99.90;;;;;;5020791;28;20203;-42
2023/06/11 10:19:20;;;;;;;5.20;4.70;;;29.00;99.90;;;;;;4995310;28;20191;-43
2023/06/11 10:21:50;;;;;;;5.00;4.50;;;29.00;99.90;;;;;;5000086;28;20192;-40
2023/06/11 10:24:29;;;;;;;5.22;4.82;;;29.20;99.90;;;;;;5001853;28;20215;-42
2023/06/11 10:27:17;;;;;;;5.38;4.88;;;29.40;99.90;;;;;;4994744;28;20207;-42
2023/06/11 10:29:50;;;;;;;4.78;4.38;;;29.60;99.90;;;;;;5018264;28;20226;-42
2023/06/11 10:32:23;;;;;;;5.63;4.68;;;29.80;99.90;;;;;;4999523;28;20188;-40
2023/06/11 10:35:07;;;;;;;5.10;4.70;;;29.90;99.90;;;;;;5005819;28;20183;-42
2023/06/11 10:37:37;;;;;;;5.78;4.72;;;29.70;99.90;;;;;;5007731;28;20207;-42
2023/06/11 10:40:14;;;;;;;5.18;4.78;;;29.60;99.90;;;;;;5026160;28;20191;-40
2023/06/11 10:42:44;;;;;;;4.53;4.13;;;29.80;99.90;;;;;;5027507;28;20191;-42
2023/06/11 10:45:20;;;;;;;5.13;4.65;;;30.00;99.90;;;;;;4995697;28;20195;-40
2023/06/11 10:47:49;;;;;;;5.57;5.07;;;30.30;99.00;;;;;;5012718;28;20278;-42
2023/06/11 10:50:35;;;;;;;6.13;4.65;;;30.30;98.60;;;;;;4996877;28;20183;-42
2023/06/11 10:53:10;;;;;;;5.43;4.95;;;30.30;98.60;;;;;;5008144;28;20186;-42
2023/06/11 10:55:44;;;;;;;4.90;4.50;;;30.30;98.80;;;;;;5008151;28;20190;-41
2023/06/11 10:58:32;;;;;;;5.47;4.97;;;30.40;98.70;;;;;;4990789;28;20258;-42
2023/06/11 11:01:08;;;;;;;5.40;4.90;;;30.60;98.60;;;;;;5012165;28;20179;-42
2023/06/11 11:03:40;;;;;;;5.25;4.85;;;30.10;97.90;;;;;;4996392;28;20295;-42
2023/06/11 11:06:20;;;;;;;7.38;5.15;;;30.30;98.40;;;;;;4996853;28;20350;-42
2023/06/11 11:08:49;;;;;;;5.15;4.65;;;30.50;97.80;;;;;;5016702;28;20213;-42
2023/06/11 11:11:22;;;;;;;6.10;4.93;;;30.60;97.60;;;;;;5014053;28;20183;-40
2023/06/11 11:14:00;;;;;;;6.47;5.07;;;30.40;97.20;;;;;;5008125;28;20226;-42
2023/06/11 11:16:34;;;;;;;6.78;5.35;;;30.50;97.60;;;;;;4995551;28;20203;-43
2023/06/11 11:19:17;;;;;;;5.43;4.93;;;30.40;97.10;;;;;;5002476;28;20272;-43
2023/06/11 11:21:55;;;;;;;6.45;4.40;;;30.40;97.50;;;;;;4996250;28;20179;-42
2023/06/11 11:24:23;;;;;;;5.53;4.88;;;30.50;96.70;;;;;;5000659;28;20195;-42
2023/06/11 11:27:00;;;;;;;5.50;5.00;;;30.40;95.90;;;;;;5004676;28;20243;-42
2023/06/11 11:29:32;;;;;;;5.65;4.90;;;30.10;97.00;;;;;;5017495;28;20234;-41
2023/06/11 11:32:02;;;;;;;6.72;4.60;;;30.30;96.50;;;;;;4996949;28;20172;-40
2023/06/11 11:34:40;;;;;;;5.20;4.80;;;30.30;97.10;;;;;;5001927;28;20188;-39
2023/06/11 11:37:06;;;;;;;5.35;4.88;;;30.20;96.80;;;;;;4986342;28;20216;-40
2023/06/11 11:39:33;;;;;;;4.80;4.40;;;30.30;96.10;;;;;;5021922;28;20194;-40
2023/06/11 11:42:07;;;;;;;6.05;5.00;;;30.60;97.00;;;;;;5019394;28;20204;-41
2023/06/11 11:44:42;;;;;;;6.95;4.78;;;31.00;95.90;;;;;;5011972;28;20191;-43
2023/06/11 11:47:13;;;;;;;4.95;4.45;;;31.10;94.60;;;;;;5011711;28;20253;-39
2023/06/11 11:49:40;;;;;;;4.65;4.25;;;31.30;94.20;;;;;;5022419;28;20187;-42
2023/06/11 11:52:06;;;;;;;6.95;4.88;;;31.30;93.30;;;;;;4994048;28;20179;-43
2023/06/11 11:54:35;;;;;;;5.38;4.63;;;31.50;93.40;;;;;;4991389;28;20236;-43
2023/06/11 11:57:07;;;;;;;4.88;4.38;;;31.60;93.30;;;;;;5010730;28;20200;-44
2023/06/11 11:59:40;;;;;;;5.05;4.55;;;31.80;93.30;;;;;;5013511;28;20187;-44
2023/06/11 12:02:09;;;;;;;5.03;4.55;;;31.90;92.60;;;;;;5008206;28;20188;-43
2023/06/11 12:04:39;;;;;;;5.53;5.03;;;31.60;92.50;;;;;;4992380;28;20247;-43
2023/06/11 12:07:07;;;;;;;5.07;4.60;;;31.60;92.80;;;;;;4994266;28;20222;-43
2023/06/11 12:09:37;;;;;;;4.68;4.38;;;31.60;92.60;;;;;;4994854;28;20203;-43
2023/06/11 12:12:07;;;;;;;6.50;5.07;;;31.70;92.90;;;;;;4995049;28;20229;-44
2023/06/11 12:14:37;;;;;;;5.15;4.65;;;31.90;92.90;;;;;;4994424;28;20187;-42
2023/06/11 12:17:09;;;;;;;4.82;4.43;;;31.90;91.60;;;;;;4994073;28;20253;-43
2023/06/11 12:19:36;;;;;;;4.97;4.57;;;32.00;90.10;;;;;;5001545;28;20218;-43
2023/06/11 12:22:05;;;;;;;4.53;4.13;;;32.00;90.30;;;;;;5008553;28;20186;-43
2023/06/11 12:24:36;;;;;;;4.85;4.32;;;32.00;90.90;;;;;;4994499;28;20197;-43
2023/06/11 12:27:03;;;;;;;4.45;4.00;;;32.30;90.70;;;;;;5022557;28;20466;-43
2023/06/11 12:29:30;;;;;;;4.75;4.35;;;32.00;89.60;;;;;;5003016;28;20270;-40
2023/06/11 12:31:59;;;;;;;4.75;4.35;;;32.00;88.60;;;;;;4986281;28;20280;-42
2023/06/11 12:34:26;;;;;;;4.50;4.10;;;32.00;89.40;;;;;;4995136;28;20188;-43
2023/06/11 12:36:53;;;;;;;4.50;4.20;;;32.00;88.50;;;;;;5013721;28;20218;-43
2023/06/11 12:39:20;;;;;;;5.47;4.78;;;32.10;88.90;;;;;;4994313;28;20187;-41
2023/06/11 12:41:48;;;;;;;5.88;4.47;;;32.30;88.00;;;;;;4999344;28;20180;-43
2023/06/11 12:44:17;;;;;;;4.90;4.40;;;32.20;86.60;;;;;;5006707;28;20206;-42
2023/06/11 12:46:43;;;;;;;5.45;4.75;;;32.40;87.10;;;;;;4990225;28;20212;-42
2023/06/11 12:49:09;;;;;;;5.15;4.65;;;32.40;87.20;;;;;;4992879;28;20206;-43
2023/06/11 12:51:36;;;;;;;5.40;4.90;;;32.20;88.90;;;;;;4989681;28;20226;-44
2023/06/11 12:54:02;;;;;;;5.63;4.88;;;32.30;88.40;;;;;;5004727;28;20206;-43